createdAt,value
2017-11-09T00:01:09.691Z,7.07
2017-11-09T00:03:35.800Z,7.07
2017-11-09T00:09:02.034Z,7.00
2017-11-09T00:11:28.578Z,6.98
2017-11-09T00:13:54.649Z,6.92
2017-11-09T00:16:20.747Z,6.93
2017-11-09T00:18:46.856Z,6.96
2017-11-09T00:21:12.950Z,6.95
2017-11-09T00:23:39.492Z,6.90
2017-11-09T00:26:05.577Z,6.86
2017-11-09T00:28:31.683Z,6.84
2017-11-09T00:30:57.775Z,6.88
2017-11-09T00:33:23.951Z,6.81
2017-11-09T00:35:50.411Z,6.86
2017-11-09T00:38:16.494Z,6.85
2017-11-09T00:40:42.576Z,6.98
2017-11-09T00:43:08.671Z,7.02
2017-11-09T00:45:34.759Z,6.84
2017-11-09T00:48:01.309Z,6.69
2017-11-09T00:50:27.401Z,6.54
2017-11-09T00:52:53.458Z,6.50
2017-11-09T00:55:19.557Z,6.51
2017-11-09T00:57:45.671Z,6.47
2017-11-09T01:00:12.119Z,6.42
2017-11-09T01:02:38.220Z,6.46
2017-11-09T01:05:04.482Z,6.47
2017-11-09T01:07:31.035Z,6.60
2017-11-09T01:09:57.099Z,6.65
2017-11-09T01:12:23.180Z,6.65
2017-11-09T01:14:49.258Z,6.70
2017-11-09T01:17:15.350Z,6.71
2017-11-09T01:19:41.880Z,6.68
2017-11-09T01:22:07.956Z,6.66
2017-11-09T01:24:34.112Z,6.67
2017-11-09T01:27:00.212Z,6.70
2017-11-09T01:29:26.222Z,6.89
2017-11-09T01:31:52.705Z,6.98
2017-11-09T01:34:18.804Z,6.86
2017-11-09T01:36:44.832Z,6.96
2017-11-09T01:39:10.925Z,6.97
2017-11-09T01:41:36.965Z,6.91
2017-11-09T01:44:03.431Z,6.91
2017-11-09T01:46:29.523Z,7.05
2017-11-09T01:48:55.619Z,6.97
2017-11-09T01:51:21.737Z,7.10
2017-11-09T01:53:47.897Z,7.11
2017-11-09T01:56:14.486Z,7.00
2017-11-09T01:58:40.565Z,7.03
2017-11-09T02:01:06.676Z,7.07
2017-11-09T02:03:32.713Z,6.95
2017-11-09T02:05:58.800Z,6.90
2017-11-09T02:08:25.255Z,6.83
2017-11-09T02:10:51.300Z,6.78
2017-11-09T02:13:17.333Z,6.75
2017-11-09T02:15:43.431Z,6.78
2017-11-09T02:18:09.475Z,6.85
2017-11-09T02:20:35.547Z,6.79
2017-11-09T02:23:01.604Z,6.85
2017-11-09T02:25:27.628Z,6.82
2017-11-09T02:27:53.695Z,6.79
2017-11-09T02:30:19.769Z,6.84
2017-11-09T02:32:46.203Z,6.81
2017-11-09T02:46:34.279Z,6.83
2017-11-09T02:49:00.776Z,6.79
2017-11-09T02:51:26.815Z,6.78
2017-11-09T02:53:52.847Z,6.73
2017-11-09T02:56:18.962Z,6.83
2017-11-09T02:58:45.024Z,6.86
2017-11-09T03:01:11.523Z,6.82
2017-11-09T03:03:37.573Z,6.79
2017-11-09T03:06:03.642Z,6.85
2017-11-09T03:08:30.096Z,6.75
2017-11-09T03:10:56.144Z,6.83
2017-11-09T03:13:22.229Z,6.91
2017-11-09T03:15:48.348Z,6.86
2017-11-09T03:18:14.438Z,6.85
2017-11-09T03:20:40.792Z,6.87
2017-11-09T03:23:06.859Z,6.79
2017-11-09T03:25:32.927Z,6.77
2017-11-09T03:27:59.006Z,6.81
2017-11-09T03:30:25.069Z,6.80
2017-11-09T03:32:51.481Z,6.73
2017-11-09T03:35:17.623Z,6.76
2017-11-09T03:37:43.708Z,6.84
2017-11-09T03:40:09.912Z,6.91
2017-11-09T03:42:35.988Z,6.86
2017-11-09T03:45:02.421Z,6.83
2017-11-09T03:47:28.512Z,6.86
2017-11-09T03:49:54.647Z,6.79
2017-11-09T03:52:20.728Z,6.77
2017-11-09T03:54:46.803Z,6.83
2017-11-09T03:57:13.272Z,6.92
2017-11-09T03:59:39.346Z,6.93
2017-11-09T04:02:05.468Z,6.94
2017-11-09T04:04:31.599Z,6.90
2017-11-09T04:06:57.687Z,6.87
2017-11-09T04:09:24.140Z,6.80
2017-11-09T04:11:50.219Z,6.80
2017-11-09T04:14:16.313Z,6.72
2017-11-09T04:16:42.791Z,6.76
2017-11-09T04:19:08.907Z,6.85
2017-11-09T04:21:35.038Z,6.89
2017-11-09T04:24:01.132Z,6.93
2017-11-09T04:26:27.221Z,6.85
2017-11-09T04:28:53.745Z,6.81
2017-11-09T04:31:19.853Z,6.83
2017-11-09T04:33:45.965Z,6.80
2017-11-09T04:36:12.053Z,6.88
2017-11-09T04:38:38.175Z,6.79
2017-11-09T04:41:04.596Z,6.79
2017-11-09T04:43:30.674Z,6.84
2017-11-09T04:45:56.779Z,6.82
2017-11-09T04:48:23.263Z,6.84
2017-11-09T04:50:49.331Z,6.83
2017-11-09T04:53:15.487Z,6.80
2017-11-09T04:55:41.638Z,6.78
2017-11-09T04:58:07.680Z,6.84
2017-11-09T05:00:34.136Z,6.85
2017-11-09T05:03:00.204Z,6.85
2017-11-09T05:05:26.311Z,6.84
2017-11-09T05:07:52.424Z,6.82
2017-11-09T05:10:18.488Z,6.77
2017-11-09T05:12:44.964Z,6.81
2017-11-09T05:15:11.041Z,6.83
2017-11-09T05:17:37.143Z,6.80
2017-11-09T05:20:03.440Z,6.81
2017-11-09T05:22:29.559Z,6.89
2017-11-09T05:24:56.004Z,6.86
2017-11-09T05:27:22.079Z,6.85
2017-11-09T05:29:48.185Z,6.81
2017-11-09T05:32:14.714Z,6.79
2017-11-09T05:34:40.808Z,6.77
2017-11-09T05:37:06.875Z,6.75
2017-11-09T05:39:33.303Z,6.78
2017-11-09T05:41:59.388Z,6.81
2017-11-09T05:44:25.457Z,6.80
2017-11-09T05:46:51.968Z,6.79
2017-11-09T05:49:18.047Z,6.79
2017-11-09T05:51:44.159Z,6.73
2017-11-09T05:54:10.567Z,6.77
2017-11-09T05:56:36.603Z,6.75
2017-11-09T05:59:02.653Z,6.71
2017-11-09T06:01:29.154Z,6.74
2017-11-09T06:03:55.530Z,6.80
2017-11-09T06:06:21.590Z,6.78
2017-11-09T06:08:48.044Z,6.78
2017-11-09T06:11:14.134Z,6.76
2017-11-09T06:13:40.171Z,6.78
2017-11-09T06:16:06.341Z,6.80
2017-11-09T06:18:32.450Z,6.75
2017-11-09T06:20:58.534Z,6.77
2017-11-09T06:23:25.008Z,6.81
2017-11-09T06:25:51.085Z,6.78
2017-11-09T06:28:17.167Z,6.74
2017-11-09T06:30:43.240Z,6.79
2017-11-09T06:33:09.316Z,6.77
2017-11-09T06:35:35.415Z,6.78
2017-11-09T06:38:01.877Z,6.84
2017-11-09T06:40:28.049Z,6.83
2017-11-09T06:42:54.180Z,6.78
2017-11-09T06:45:20.305Z,6.77
2017-11-09T06:47:46.462Z,6.68
2017-11-09T06:50:12.500Z,6.60
2017-11-09T06:52:38.950Z,6.51
2017-11-09T06:55:05.180Z,6.44
2017-11-09T06:57:31.287Z,6.51
2017-11-09T06:59:57.504Z,6.48
2017-11-09T07:02:23.555Z,6.46
2017-11-09T07:04:49.678Z,6.44
2017-11-09T07:07:16.136Z,6.38
2017-11-09T07:09:42.192Z,6.52
2017-11-09T07:12:08.279Z,6.53
2017-11-09T07:14:34.831Z,6.65
2017-11-09T07:17:00.920Z,6.67
2017-11-09T07:19:27.015Z,6.71
2017-11-09T07:21:53.412Z,6.87
2017-11-09T07:24:19.499Z,6.93
2017-11-09T07:26:45.623Z,7.06
2017-11-09T07:29:12.051Z,7.15
2017-11-09T07:31:38.272Z,7.06
2017-11-09T07:34:04.406Z,7.10
2017-11-09T07:36:30.908Z,7.17
2017-11-09T07:38:57.002Z,7.19
2017-11-09T07:41:23.119Z,7.20
2017-11-09T07:43:49.579Z,7.17
2017-11-09T07:46:15.691Z,7.11
2017-11-09T07:48:41.796Z,7.18
2017-11-09T07:51:08.285Z,7.14
2017-11-09T07:53:34.372Z,7.13
2017-11-09T07:56:00.512Z,7.05
2017-11-09T07:58:27.081Z,7.03
2017-11-09T08:00:53.144Z,7.18
2017-11-09T08:03:19.208Z,7.22
2017-11-09T08:05:45.691Z,7.19
2017-11-09T08:08:11.778Z,7.15
2017-11-09T08:10:37.866Z,7.14
2017-11-09T08:13:04.350Z,7.16
2017-11-09T08:15:30.437Z,7.18
2017-11-09T08:17:56.504Z,7.31
2017-11-09T08:20:22.947Z,7.22
2017-11-09T08:22:49.027Z,7.29
2017-11-09T08:25:18.071Z,7.21
2017-11-09T08:27:46.075Z,7.14
2017-11-09T08:30:14.354Z,7.18
2017-11-09T08:32:43.580Z,7.18
2017-11-09T08:35:09.645Z,7.22
2017-11-09T08:37:35.743Z,7.19
2017-11-09T08:40:02.193Z,7.18
2017-11-09T08:42:28.232Z,7.22
2017-11-09T08:44:54.464Z,7.25
2017-11-09T08:47:20.617Z,7.29
2017-11-09T08:49:46.723Z,7.31
2017-11-09T08:52:13.232Z,7.30
2017-11-09T08:54:39.313Z,7.30
2017-11-09T08:57:05.368Z,7.29
2017-11-09T08:59:31.497Z,7.32
2017-11-09T09:01:57.665Z,7.37
2017-11-09T09:04:24.179Z,7.34
2017-11-09T09:06:50.231Z,7.36
2017-11-09T09:09:16.340Z,7.37
2017-11-09T09:11:42.443Z,7.44
2017-11-09T09:14:08.553Z,7.50
2017-11-09T09:16:35.039Z,7.53
2017-11-09T09:19:01.173Z,7.50
2017-11-09T09:21:31.132Z,7.61
2017-11-09T09:23:58.120Z,7.58
2017-11-09T09:29:32.411Z,7.53
2017-11-09T09:31:58.920Z,7.54
2017-11-09T09:34:27.693Z,7.55
2017-11-09T09:36:55.412Z,7.51
2017-11-09T09:39:23.803Z,7.42
2017-11-09T09:41:49.927Z,7.43
2017-11-09T09:44:16.420Z,7.37
2017-11-09T09:46:42.559Z,7.30
2017-11-09T09:49:08.653Z,7.30
2017-11-09T09:51:35.323Z,7.32
2017-11-09T09:54:01.457Z,7.38
2017-11-09T09:56:27.544Z,7.37
2017-11-09T09:58:54.100Z,7.38
2017-11-09T10:01:20.244Z,7.33
2017-11-09T10:03:46.333Z,7.39
2017-11-09T10:06:12.464Z,7.45
2017-11-09T10:08:38.543Z,7.44
2017-11-09T10:11:05.071Z,7.44
2017-11-09T10:13:31.150Z,7.44
2017-11-09T10:15:57.303Z,7.45
2017-11-09T10:18:23.461Z,7.46
2017-11-09T10:20:49.561Z,7.50
2017-11-09T10:23:16.079Z,7.52
2017-11-09T10:25:42.143Z,7.55
2017-11-09T10:28:10.131Z,7.51
2017-11-09T10:30:36.244Z,7.53
2017-11-09T10:33:02.364Z,7.50
2017-11-09T10:35:28.867Z,7.49
2017-11-09T10:37:54.888Z,7.51
2017-11-09T10:40:20.949Z,7.41
2017-11-09T10:42:47.468Z,7.45
2017-11-09T10:45:13.593Z,7.38
2017-11-09T10:47:39.725Z,7.55
2017-11-09T10:50:05.808Z,7.59
2017-11-09T10:52:31.895Z,7.54
2017-11-09T10:54:58.303Z,7.55
2017-11-09T10:57:24.435Z,7.58
2017-11-09T10:59:50.526Z,7.67
2017-11-09T11:02:16.982Z,7.82
2017-11-09T11:04:43.045Z,7.87
2017-11-09T11:07:09.142Z,7.60
2017-11-09T11:09:35.588Z,7.48
2017-11-09T11:12:01.668Z,7.44
2017-11-09T11:14:27.745Z,7.63
2017-11-09T11:16:54.207Z,7.72
2017-11-09T11:19:20.272Z,7.74
2017-11-09T11:21:49.140Z,7.74
2017-11-09T11:24:15.594Z,7.68
2017-11-09T11:26:41.672Z,7.65
2017-11-09T11:29:07.706Z,7.64
2017-11-09T11:31:34.093Z,7.63
2017-11-09T11:34:00.188Z,7.65
2017-11-09T11:36:26.323Z,7.69
2017-11-09T11:38:52.458Z,7.68
2017-11-09T11:41:18.609Z,7.67
2017-11-09T11:43:45.147Z,7.76
2017-11-09T11:46:12.222Z,7.77
2017-11-09T11:48:38.464Z,7.69
2017-11-09T11:51:04.539Z,7.70
2017-11-09T11:53:30.721Z,7.79
2017-11-09T11:55:57.240Z,7.67
2017-11-09T11:58:23.318Z,7.78
2017-11-09T12:00:49.423Z,7.76
2017-11-09T12:03:15.507Z,7.85
2017-11-09T12:05:41.543Z,7.86
2017-11-09T12:08:07.980Z,7.85
2017-11-09T12:10:34.100Z,7.83
2017-11-09T12:13:00.189Z,7.85
2017-11-09T12:15:26.767Z,7.90
2017-11-09T12:17:52.874Z,7.91
2017-11-09T12:20:18.921Z,7.88
2017-11-09T12:22:45.049Z,7.94
2017-11-09T12:25:11.149Z,7.84
2017-11-09T12:27:37.609Z,7.76
2017-11-09T12:30:03.796Z,7.92
2017-11-09T12:32:29.869Z,7.93
2017-11-09T12:34:56.404Z,7.80
2017-11-09T12:37:22.555Z,7.93
2017-11-09T12:39:48.735Z,7.73
2017-11-09T12:42:15.211Z,7.80
2017-11-09T12:44:41.308Z,7.85
2017-11-09T12:47:07.388Z,7.76
2017-11-09T12:49:33.506Z,7.69
2017-11-09T12:51:59.611Z,7.91
2017-11-09T12:54:26.032Z,7.90
2017-11-09T12:56:52.195Z,7.80
2017-11-09T12:59:18.339Z,7.90
2017-11-09T13:01:44.818Z,7.96
2017-11-09T13:04:10.952Z,8.03
2017-11-09T13:06:37.107Z,8.05
2017-11-09T13:09:03.637Z,7.86
2017-11-09T13:11:29.724Z,7.78
2017-11-09T13:13:55.883Z,8.00
2017-11-09T13:16:22.408Z,7.92
2017-11-09T13:18:48.495Z,7.86
2017-11-09T13:21:14.687Z,7.92
2017-11-09T13:23:41.211Z,8.10
2017-11-09T13:26:07.327Z,8.23
2017-11-09T13:28:33.497Z,8.28
2017-11-09T13:30:59.655Z,8.15
2017-11-09T13:33:25.800Z,7.91
2017-11-09T13:35:52.355Z,7.88
2017-11-09T13:38:18.470Z,7.93
2017-11-09T13:40:44.644Z,7.81
2017-11-09T13:43:10.840Z,7.95
2017-11-09T13:45:39.952Z,8.18
2017-11-09T13:48:06.464Z,8.26
2017-11-09T13:50:32.556Z,8.20
2017-11-09T13:52:58.640Z,8.12
2017-11-09T13:55:24.768Z,8.08
2017-11-09T13:57:50.896Z,7.94
2017-11-09T14:00:17.439Z,7.99
2017-11-09T14:02:43.532Z,7.92
2017-11-09T14:05:09.608Z,7.92
2017-11-09T14:07:35.740Z,8.07
2017-11-09T14:10:01.886Z,8.00
2017-11-09T14:12:28.485Z,7.86
2017-11-09T14:14:54.575Z,7.85
2017-11-09T14:17:20.691Z,7.81
2017-11-09T14:19:46.805Z,7.87
2017-11-09T14:22:12.884Z,8.21
2017-11-09T14:24:39.284Z,8.30
2017-11-09T14:27:05.397Z,8.35
2017-11-09T14:29:31.479Z,8.39
2017-11-09T14:31:57.994Z,8.34
2017-11-09T14:34:24.101Z,8.15
2017-11-09T14:36:50.139Z,8.10
2017-11-09T14:39:16.684Z,8.02
2017-11-09T14:41:42.764Z,7.89
2017-11-09T14:44:08.864Z,8.04
2017-11-09T14:46:34.955Z,8.00
2017-11-09T14:49:01.068Z,8.01
2017-11-09T14:51:27.632Z,8.10
2017-11-09T14:53:53.764Z,7.88
2017-11-09T14:56:19.900Z,7.89
2017-11-09T14:58:46.039Z,7.90
2017-11-09T15:01:12.191Z,8.09
2017-11-09T15:03:38.571Z,8.17
2017-11-09T15:06:04.641Z,8.36
2017-11-09T15:08:30.860Z,8.21
2017-11-09T15:10:57.060Z,8.20
2017-11-09T15:13:23.091Z,8.21
2017-11-09T15:15:54.596Z,8.20
2017-11-09T15:18:20.690Z,8.13
2017-11-09T15:20:46.824Z,8.17
2017-11-09T15:23:13.334Z,8.10
2017-11-09T15:25:39.463Z,8.07
2017-11-09T15:28:05.591Z,8.01
2017-11-09T15:30:32.074Z,7.88
2017-11-09T15:32:58.271Z,7.68
2017-11-09T15:35:27.320Z,7.70
2017-11-09T15:37:53.435Z,7.91
2017-11-09T15:40:19.548Z,7.95
2017-11-09T15:42:45.941Z,8.00
2017-11-09T15:45:12.049Z,7.96
2017-11-09T15:47:38.069Z,8.04
2017-11-09T15:50:04.165Z,8.03
2017-11-09T15:52:30.229Z,8.02
2017-11-09T15:54:56.680Z,8.00
2017-11-09T15:57:22.701Z,8.03
2017-11-09T15:59:48.756Z,7.99
2017-11-09T16:02:14.843Z,8.03
2017-11-09T16:04:41.027Z,8.00
2017-11-09T16:07:17.395Z,7.96
2017-11-09T16:09:43.520Z,7.92
2017-11-09T16:12:12.062Z,7.84
2017-11-09T16:14:38.204Z,7.90
2017-11-09T16:17:04.355Z,7.65
2017-11-09T16:19:30.864Z,7.60
2017-11-09T16:21:57.042Z,7.59
2017-11-09T16:24:23.104Z,7.68
2017-11-09T16:26:49.192Z,7.77
2017-11-09T16:29:15.284Z,7.75
2017-11-09T16:31:42.022Z,7.84
2017-11-09T16:34:08.493Z,7.78
2017-11-09T16:36:34.829Z,7.67
2017-11-09T16:39:01.894Z,7.52
2017-11-09T16:41:28.056Z,7.35
2017-11-09T16:43:54.579Z,7.35
2017-11-09T16:46:20.671Z,7.33
2017-11-09T16:48:46.813Z,7.44
2017-11-09T16:51:12.975Z,7.54
2017-11-09T16:53:39.052Z,7.59
2017-11-09T16:56:05.481Z,7.60
2017-11-09T16:58:31.582Z,7.50
2017-11-09T17:00:57.662Z,7.41
2017-11-09T17:03:24.116Z,7.48
2017-11-09T17:05:50.237Z,7.69
2017-11-09T17:08:16.520Z,7.77
2017-11-09T17:10:43.041Z,7.74
2017-11-09T17:13:09.100Z,7.79
2017-11-09T17:15:35.218Z,7.77
2017-11-09T17:18:01.363Z,7.80
2017-11-09T17:20:27.471Z,7.83
2017-11-09T17:22:53.960Z,7.80
2017-11-09T17:25:20.106Z,7.75
2017-11-09T17:27:46.222Z,7.84
2017-11-09T17:30:12.324Z,7.80
2017-11-09T17:32:38.438Z,7.83
2017-11-09T17:35:06.071Z,7.78
2017-11-09T17:37:32.116Z,7.79
2017-11-09T17:39:58.265Z,7.73
2017-11-09T17:42:26.600Z,7.72
2017-11-09T17:44:52.782Z,7.63
2017-11-09T17:47:18.883Z,7.39
2017-11-09T17:49:44.980Z,7.31
2017-11-09T17:52:11.087Z,7.25
2017-11-09T17:54:37.630Z,7.15
2017-11-09T17:57:03.743Z,7.13
2017-11-09T17:59:29.855Z,7.19
2017-11-09T18:01:56.398Z,7.19
2017-11-09T18:04:22.433Z,7.18
2017-11-09T18:06:48.619Z,7.18
2017-11-09T18:09:15.118Z,7.14
2017-11-09T18:11:41.268Z,7.08
2017-11-09T18:14:07.355Z,7.12
2017-11-09T18:16:33.538Z,7.26
2017-11-09T18:18:59.704Z,7.47
2017-11-09T18:21:26.156Z,7.59
2017-11-09T18:23:55.120Z,7.63
2017-11-09T18:26:21.229Z,7.55
2017-11-09T18:28:47.397Z,7.56
2017-11-09T18:31:13.519Z,7.50
2017-11-09T18:33:40.035Z,7.52
2017-11-09T18:36:06.210Z,7.50
2017-11-09T18:38:32.360Z,7.43
2017-11-09T18:40:58.890Z,7.40
2017-11-09T18:43:25.000Z,7.40
2017-11-09T18:45:51.095Z,7.27
2017-11-09T18:48:17.184Z,7.20
2017-11-09T18:50:43.274Z,7.23
2017-11-09T18:53:10.101Z,7.34
2017-11-09T18:55:36.205Z,7.38
2017-11-09T18:58:02.340Z,7.34
2017-11-09T19:00:28.503Z,7.46
2017-11-09T19:02:54.605Z,7.45
2017-11-09T19:05:21.058Z,7.42
2017-11-09T19:07:47.207Z,7.38
2017-11-09T19:10:13.327Z,7.38
2017-11-09T19:12:39.541Z,7.38
2017-11-09T19:15:05.660Z,7.34
2017-11-09T19:17:32.217Z,7.30
2017-11-09T19:19:58.396Z,7.30
2017-11-09T19:22:24.591Z,7.27
2017-11-09T19:24:51.145Z,7.28
2017-11-09T19:27:17.456Z,7.24
2017-11-09T19:29:43.696Z,7.23
2017-11-09T19:32:10.231Z,7.18
2017-11-09T19:34:36.443Z,7.15
2017-11-09T19:37:02.676Z,7.16
2017-11-09T19:39:28.967Z,7.14
2017-11-09T19:41:55.228Z,7.12
2017-11-09T19:44:21.955Z,7.13
2017-11-09T19:46:48.336Z,7.14
2017-11-09T19:49:14.556Z,7.12
2017-11-09T19:51:41.263Z,7.10
2017-11-09T19:54:07.552Z,7.14
2017-11-09T19:56:34.651Z,7.20
2017-11-09T19:59:01.381Z,7.21
2017-11-09T20:01:27.765Z,7.20
2017-11-09T20:03:54.093Z,7.12
2017-11-09T20:06:20.340Z,7.14
2017-11-09T20:08:46.657Z,7.11
2017-11-09T20:11:13.321Z,7.13
2017-11-09T20:13:39.604Z,7.12
2017-11-09T20:16:05.928Z,7.12
2017-11-09T20:18:32.634Z,7.13
2017-11-09T20:20:58.888Z,7.13
2017-11-09T20:23:25.276Z,7.17
2017-11-09T20:25:52.426Z,7.18
2017-11-09T20:28:18.799Z,7.05
2017-11-09T20:30:45.446Z,7.02
2017-11-09T20:33:15.690Z,7.05
2017-11-09T20:35:41.900Z,7.09
2017-11-09T20:38:08.154Z,6.99
2017-11-09T20:40:34.397Z,6.97
2017-11-09T20:43:01.096Z,7.17
2017-11-09T20:45:27.278Z,7.22
2017-11-09T20:47:53.499Z,7.21
2017-11-09T20:50:21.001Z,7.23
2017-11-09T20:52:47.127Z,7.21
2017-11-09T20:55:13.282Z,7.28
2017-11-09T20:57:39.868Z,7.24
2017-11-09T21:00:06.080Z,7.23
2017-11-09T21:02:32.211Z,7.19
2017-11-09T21:04:58.314Z,7.13
2017-11-09T21:07:24.496Z,7.23
2017-11-09T21:09:50.999Z,7.21
2017-11-09T21:12:17.224Z,7.14
2017-11-09T21:14:43.363Z,7.18
2017-11-09T21:17:09.977Z,7.23
2017-11-09T21:19:36.056Z,7.22
2017-11-09T21:22:03.110Z,7.18
2017-11-09T21:24:29.248Z,7.15
2017-11-09T21:26:55.272Z,7.17
2017-11-09T21:29:21.396Z,7.10
2017-11-09T21:31:47.508Z,7.18
2017-11-09T21:34:13.597Z,7.21
2017-11-09T21:36:39.706Z,7.22
2017-11-09T21:39:06.153Z,7.22
2017-11-09T21:41:32.176Z,7.21
2017-11-09T21:43:58.268Z,7.19
2017-11-09T21:46:24.711Z,7.17
2017-11-09T21:48:50.788Z,7.20
2017-11-09T21:51:16.872Z,7.19
2017-11-09T21:53:43.319Z,7.17
2017-11-09T21:56:09.427Z,7.18
2017-11-09T21:58:35.526Z,7.11
2017-11-09T22:01:02.002Z,7.13
2017-11-09T22:03:28.081Z,7.11
2017-11-09T22:05:54.183Z,7.14
2017-11-09T22:08:20.707Z,7.13
2017-11-09T22:10:46.852Z,7.11
2017-11-09T22:13:12.944Z,7.03
2017-11-09T22:15:39.481Z,7.01
2017-11-09T22:18:05.517Z,7.05
2017-11-09T22:20:31.651Z,7.08
2017-11-09T22:22:58.191Z,7.01
2017-11-09T22:25:24.285Z,7.06
2017-11-09T22:27:50.344Z,7.06
2017-11-09T22:30:16.419Z,7.04
2017-11-09T22:32:42.522Z,7.04
2017-11-09T22:35:09.007Z,7.01
2017-11-09T22:37:35.104Z,7.03
2017-11-09T22:40:01.187Z,6.99
2017-11-09T22:42:27.707Z,6.94
2017-11-09T22:44:53.780Z,6.94
2017-11-09T22:47:19.931Z,6.89
2017-11-09T22:49:46.040Z,6.89
2017-11-09T22:52:12.143Z,6.91
2017-11-09T22:54:38.657Z,6.87
2017-11-09T22:57:04.731Z,6.85
2017-11-09T22:59:31.008Z,6.81
2017-11-09T23:01:57.431Z,6.84
2017-11-09T23:04:23.523Z,6.80
2017-11-09T23:06:49.591Z,6.80
2017-11-09T23:09:15.695Z,6.81
2017-11-09T23:11:41.818Z,6.82
2017-11-09T23:14:08.278Z,6.81
2017-11-09T23:16:34.310Z,6.83
2017-11-09T23:19:00.542Z,6.81
2017-11-09T23:21:26.705Z,6.80
2017-11-09T23:23:52.824Z,6.83
2017-11-09T23:26:19.236Z,6.84
2017-11-09T23:28:45.368Z,6.81
2017-11-09T23:31:11.437Z,6.80
2017-11-09T23:33:37.592Z,6.83
2017-11-09T23:36:03.736Z,6.84
2017-11-09T23:38:30.152Z,6.80
2017-11-09T23:40:56.229Z,6.86
2017-11-09T23:43:22.294Z,6.89
2017-11-09T23:45:48.408Z,6.86
2017-11-09T23:48:14.486Z,6.87
2017-11-09T23:50:41.027Z,6.88
2017-11-09T23:53:07.087Z,6.91
2017-11-09T23:55:33.207Z,6.92
2017-11-09T23:57:59.335Z,6.91
